Time;durP1;ratioP1;P1;durP2;ratioP2;P2;SDS_P1;SDS_P2;PMS_P1;PMS_P2;Temp;Humidity;BMP_temperature;BMP_pressure;BME280_temperature;BME280_humidity;BME280_pressure;Samples;Min_cycle;Max_cycle;Signal;HPM_P1;HPM_P2
2022/12/13 00:01:11;;;;;;;60.95;26.35;;;-0.50;99.90;;;;;;5041693;28;20033;-76
2022/12/13 00:03:37;;;;;;;59.08;26.30;;;-0.50;99.90;;;;;;5043978;28;20040;-78
2022/12/13 00:06:07;;;;;;;66.00;26.23;;;-0.60;99.90;;;;;;5037984;28;20049;-78
2022/12/13 00:08:32;;;;;;;66.50;27.35;;;-0.60;99.90;;;;;;5045218;28;20028;-77
2022/12/13 00:11:03;;;;;;;72.82;28.30;;;-0.60;99.90;;;;;;5046067;28;20021;-77
2022/12/13 00:13:29;;;;;;;65.50;25.75;;;-0.60;99.90;;;;;;5029136;28;20096;-78
2022/12/13 00:16:00;;;;;;;69.25;27.75;;;-0.60;99.90;;;;;;5032760;28;20059;-78
2022/12/13 00:18:26;;;;;;;70.72;27.02;;;-0.60;99.90;;;;;;5034824;28;20056;-76
2022/12/13 00:20:52;;;;;;;68.18;27.17;;;-0.60;99.90;;;;;;5042704;28;20040;-74
2022/12/13 00:23:18;;;;;;;69.32;26.88;;;-0.60;99.90;;;;;;5056196;28;20029;-76
2022/12/13 00:25:44;;;;;;;64.30;26.65;;;-0.60;99.90;;;;;;5045481;28;20041;-74
2022/12/13 00:28:10;;;;;;;68.88;26.42;;;-0.50;99.90;;;;;;5040616;28;20035;-75
2022/12/13 00:30:35;;;;;;;62.22;24.85;;;-0.50;99.90;;;;;;5032780;28;20439;-77
2022/12/13 00:33:01;;;;;;;69.15;28.45;;;-0.60;99.90;;;;;;5041779;28;20043;-77
2022/12/13 00:35:27;;;;;;;63.00;25.80;;;-0.70;99.90;;;;;;5056383;28;20059;-78
2022/12/13 00:37:52;;;;;;;62.78;26.42;;;-0.60;99.90;;;;;;5035006;28;20690;-76
2022/12/13 00:40:18;;;;;;;66.55;27.50;;;-0.60;99.90;;;;;;5032707;28;20021;-80
2022/12/13 00:42:44;;;;;;;62.70;25.60;;;-0.70;99.90;;;;;;5040645;28;20067;-78
2022/12/13 00:45:09;;;;;;;62.20;25.73;;;-0.70;99.90;;;;;;5031788;28;20406;-77
2022/12/13 00:47:35;;;;;;;60.55;25.13;;;-0.80;99.90;;;;;;5049143;28;20036;-78
2022/12/13 00:50:04;;;;;;;61.40;25.25;;;-0.80;99.90;;;;;;5055641;28;20079;-79
2022/12/13 00:52:32;;;;;;;61.08;25.17;;;-0.80;99.90;;;;;;5042348;28;20810;-75
2022/12/13 00:54:57;;;;;;;54.88;23.95;;;-0.90;99.90;;;;;;5054115;28;20448;-76
2022/12/13 00:57:23;;;;;;;52.15;23.05;;;-0.90;99.90;;;;;;5051983;28;20029;-77
2022/12/13 00:59:49;;;;;;;54.55;22.13;;;-0.90;99.90;;;;;;5042922;28;20057;-75
2022/12/13 01:02:15;;;;;;;54.90;23.08;;;-1.00;99.90;;;;;;5061061;28;20047;-75
2022/12/13 01:04:41;;;;;;;55.10;22.13;;;-1.00;99.90;;;;;;5046375;28;20593;-76
2022/12/13 01:07:07;;;;;;;50.25;19.88;;;-1.00;99.90;;;;;;5051527;28;20398;-78
2022/12/13 01:09:32;;;;;;;51.70;21.25;;;-1.10;99.90;;;;;;5033702;28;20390;-76
2022/12/13 01:12:04;;;;;;;51.45;22.90;;;-1.10;99.90;;;;;;5058488;28;20039;-79
2022/12/13 01:14:30;;;;;;;47.13;21.45;;;-1.10;99.90;;;;;;5063724;28;20445;-75
2022/12/13 01:16:56;;;;;;;53.53;21.38;;;-1.20;99.90;;;;;;5044247;28;20029;-77
2022/12/13 01:19:26;;;;;;;50.92;21.38;;;-1.10;99.90;;;;;;5046730;28;20036;-77
2022/12/13 01:22:00;;;;;;;49.95;21.45;;;-1.10;99.90;;;;;;5052094;28;20041;-77
2022/12/13 01:24:27;;;;;;;45.28;20.10;;;-1.10;99.90;;;;;;5052913;28;20041;-75
2022/12/13 01:26:53;;;;;;;48.10;19.50;;;-1.10;99.90;;;;;;5048812;28;20133;-77
2022/12/13 01:29:20;;;;;;;46.78;18.58;;;-1.10;99.90;;;;;;5063720;28;20033;-78
2022/12/13 01:31:47;;;;;;;52.47;20.35;;;-1.20;99.90;;;;;;5036628;28;20048;-77
2022/12/13 01:34:15;;;;;;;44.20;18.92;;;-1.20;99.90;;;;;;5037418;28;20022;-77
2022/12/13 01:36:43;;;;;;;46.42;19.48;;;-1.20;99.90;;;;;;5036417;28;20021;-77
2022/12/13 01:39:11;;;;;;;50.80;19.27;;;-1.20;99.90;;;;;;5053097;28;20056;-79
2022/12/13 01:41:38;;;;;;;45.80;18.30;;;-1.20;99.90;;;;;;5062029;28;20063;-77
2022/12/13 01:44:45;;;;;;;46.85;18.55;;;-1.20;99.90;;;;;;5041403;28;20029;-74
2022/12/13 01:47:11;;;;;;;43.70;17.38;;;-1.30;99.90;;;;;;5050156;28;20037;-75
2022/12/13 01:49:37;;;;;;;48.20;19.40;;;-1.30;99.90;;;;;;5046844;28;20507;-78
2022/12/13 01:52:07;;;;;;;52.47;19.88;;;-1.30;99.90;;;;;;5043833;28;20037;-77
2022/12/13 01:54:36;;;;;;;;;;;-1.30;99.90;;;;;;5052001;28;20033;-78
2022/12/13 01:57:05;;;;;;;38.58;17.35;;;-1.40;99.90;;;;;;5030518;28;19953;-77
2022/12/13 01:59:32;;;;;;;45.85;19.10;;;-1.40;99.90;;;;;;5031007;28;20265;-76
2022/12/13 02:01:58;;;;;;;53.15;19.63;;;-1.40;99.90;;;;;;5048509;28;20116;-76
2022/12/13 02:04:30;;;;;;;48.53;18.50;;;-1.40;99.90;;;;;;5048298;28;20490;-78
2022/12/13 02:06:57;;;;;;;48.17;18.63;;;-1.40;99.90;;;;;;5034257;28;20472;-78
2022/12/13 02:09:22;;;;;;;46.78;18.58;;;-1.40;99.90;;;;;;5045647;28;20029;-77
2022/12/13 02:11:49;;;;;;;54.92;21.63;;;-1.50;99.90;;;;;;5034401;28;20788;-79
2022/12/13 02:14:15;;;;;;;50.80;20.15;;;-1.50;99.90;;;;;;5049639;28;20093;-77
2022/12/13 02:17:04;;;;;;;50.53;21.45;;;-1.40;99.90;;;;;;5064120;28;20024;-77
2022/12/13 02:19:54;;;;;;;49.03;23.13;;;-1.40;99.90;;;;;;5065173;28;20036;-75
2022/12/13 02:22:38;;;;;;;;;;;-1.40;99.90;;;;;;5046491;28;20028;-78
2022/12/13 02:25:04;;;;;;;48.65;22.23;;;-1.40;99.90;;;;;;5037645;28;20020;-78
2022/12/13 02:27:51;;;;;;;52.70;21.15;;;-1.50;99.90;;;;;;5047540;28;20177;-74
2022/12/13 02:30:30;;;;;;;51.70;20.83;;;-1.50;99.90;;;;;;5030596;28;20120;-79
2022/12/13 02:33:26;;;;;;;46.97;20.10;;;-1.60;99.90;;;;;;5041834;28;20363;-78
2022/12/13 02:36:10;;;;;;;47.30;19.45;;;-1.60;99.90;;;;;;5044561;28;20028;-74
2022/12/13 02:38:45;;;;;;;47.72;19.52;;;-1.70;99.90;;;;;;5053738;28;20024;-77
2022/12/13 02:41:10;;;;;;;48.30;19.40;;;-1.80;99.90;;;;;;5046433;28;20025;-77
2022/12/13 02:44:03;;;;;;;51.50;19.50;;;-1.80;99.90;;;;;;5039561;28;20029;-78
2022/12/13 02:46:33;;;;;;;44.10;19.05;;;-1.80;99.90;;;;;;5037040;28;20049;-76
2022/12/13 02:49:01;;;;;;;41.17;17.55;;;-1.70;99.90;;;;;;5067211;28;20478;-77
2022/12/13 02:51:27;;;;;;;44.05;17.42;;;-1.70;99.90;;;;;;5047988;28;20029;-77
2022/12/13 02:53:53;;;;;;;43.80;17.17;;;-1.80;99.90;;;;;;5059468;28;20032;-78
2022/12/13 02:56:18;;;;;;;41.92;17.85;;;-1.80;99.90;;;;;;5047045;28;20037;-76
2022/12/13 02:58:52;;;;;;;43.08;17.58;;;-1.70;99.90;;;;;;5038908;28;20034;-77
2022/12/13 03:01:36;;;;;;;40.55;16.80;;;-1.70;99.90;;;;;;5033680;28;20064;-77
2022/12/13 03:04:26;;;;;;;42.92;16.85;;;-1.70;99.90;;;;;;5033176;28;20033;-78
2022/12/13 03:07:28;;;;;;;41.63;17.48;;;-1.80;99.90;;;;;;5042501;28;20143;-77
2022/12/13 03:10:17;;;;;;;43.80;16.80;;;-1.80;99.90;;;;;;5041518;28;20041;-77
2022/12/13 03:15:53;;;;;;;42.97;16.85;;;-1.80;99.90;;;;;;5037348;28;20042;-76
2022/12/13 03:18:22;;;;;;;43.15;16.90;;;-1.80;99.90;;;;;;5044228;28;20068;-77
2022/12/13 03:21:00;;;;;;;40.33;16.50;;;-1.70;99.90;;;;;;5029896;28;20033;-77
2022/12/13 03:23:26;;;;;;;43.03;17.33;;;-1.70;99.90;;;;;;5041907;28;20032;-76
2022/12/13 03:26:13;;;;;;;41.40;17.92;;;-1.70;99.90;;;;;;5029478;28;20045;-76
2022/12/13 03:28:39;;;;;;;40.85;16.92;;;-1.70;99.90;;;;;;5051714;28;20066;-76
2022/12/13 03:31:05;;;;;;;41.40;16.73;;;-1.70;99.90;;;;;;5044613;28;20040;-76
2022/12/13 03:33:31;;;;;;;47.53;17.13;;;-1.70;99.90;;;;;;5043435;28;20037;-77
2022/12/13 03:35:57;;;;;;;42.67;17.23;;;-1.70;99.90;;;;;;5029273;28;20040;-79
2022/12/13 03:38:23;;;;;;;44.03;17.30;;;-1.80;99.90;;;;;;5036665;28;20512;-77
2022/12/13 03:41:00;;;;;;;40.53;16.60;;;-1.80;99.90;;;;;;5044017;28;20032;-76
2022/12/13 03:43:26;;;;;;;39.03;16.10;;;-1.80;99.90;;;;;;5064596;28;20028;-78
2022/12/13 03:45:53;;;;;;;37.35;15.98;;;-1.80;99.90;;;;;;5051605;28;20040;-77
2022/12/13 03:48:19;;;;;;;43.70;16.52;;;-1.90;99.90;;;;;;5040924;28;20471;-76
2022/12/13 03:50:45;;;;;;;41.55;17.85;;;-1.90;99.90;;;;;;5039571;28;20514;-77
2022/12/13 03:53:11;;;;;;;41.47;16.90;;;-1.90;99.90;;;;;;5049210;28;20047;-78
2022/12/13 03:55:36;;;;;;;40.05;15.50;;;-1.90;99.90;;;;;;5047511;28;20527;-77
2022/12/13 03:58:02;;;;;;;37.75;15.25;;;-1.80;99.90;;;;;;5059418;28;20044;-77
2022/12/13 04:00:28;;;;;;;38.75;14.82;;;-1.80;99.90;;;;;;5053239;28;20553;-78
2022/12/13 04:02:53;;;;;;;41.00;15.23;;;-1.80;99.90;;;;;;5047243;28;20051;-77
2022/12/13 04:05:19;;;;;;;35.47;15.00;;;-1.90;99.90;;;;;;5031570;28;20047;-76
2022/12/13 04:07:44;;;;;;;39.60;15.48;;;-1.80;99.90;;;;;;5026193;28;20032;-77
2022/12/13 04:10:10;;;;;;;38.42;14.52;;;-1.90;99.90;;;;;;5028352;28;20060;-77
2022/12/13 04:15:20;;;;;;;38.60;14.13;;;-1.80;99.90;;;;;;5027491;28;20365;-77
2022/12/13 04:17:45;;;;;;;36.40;15.23;;;-1.90;99.90;;;;;;5029276;28;20033;-78
2022/12/13 04:20:11;;;;;;;37.15;14.63;;;-1.90;99.90;;;;;;5058471;28;20045;-77
2022/12/13 04:22:37;;;;;;;32.88;14.27;;;-1.90;99.90;;;;;;5035292;28;20451;-77
2022/12/13 04:25:03;;;;;;;37.17;15.07;;;-1.90;99.90;;;;;;5032407;28;20041;-78
2022/12/13 04:27:29;;;;;;;36.08;13.73;;;-1.90;99.90;;;;;;5042014;28;20040;-76
2022/12/13 04:29:55;;;;;;;35.50;14.65;;;-1.90;99.90;;;;;;5039311;28;20598;-77
2022/12/13 04:32:21;;;;;;;36.80;14.23;;;-2.00;99.90;;;;;;5040975;28;20034;-76
2022/12/13 04:34:46;;;;;;;32.13;13.55;;;-2.10;99.90;;;;;;5041522;28;20061;-77
2022/12/13 04:37:12;;;;;;;36.13;14.13;;;-2.10;99.90;;;;;;5046427;28;20169;-79
2022/12/13 04:39:37;;;;;;;35.45;14.75;;;-2.20;99.90;;;;;;5061340;28;20024;-76
2022/12/13 04:42:03;;;;;;;30.55;13.32;;;-2.20;99.90;;;;;;5030717;28;20021;-78
2022/12/13 04:44:29;;;;;;;37.58;14.10;;;-2.30;99.90;;;;;;5043436;28;20029;-75
2022/12/13 04:46:54;;;;;;;32.92;14.20;;;-2.30;99.90;;;;;;5032432;28;20525;-78
2022/12/13 04:49:20;;;;;;;33.13;14.27;;;-2.40;99.90;;;;;;5058045;28;20029;-77
2022/12/13 04:51:46;;;;;;;32.75;13.57;;;-2.40;99.90;;;;;;5053429;28;20081;-77
2022/12/13 04:54:11;;;;;;;34.55;14.32;;;-2.40;99.90;;;;;;5044601;28;20032;-75
2022/12/13 04:56:37;;;;;;;35.78;14.02;;;-2.40;99.90;;;;;;5057646;28;20032;-75
2022/12/13 04:59:03;;;;;;;33.17;13.60;;;-2.40;99.90;;;;;;5057367;28;20025;-76
2022/12/13 05:01:28;;;;;;;30.83;14.02;;;-2.40;99.90;;;;;;5039434;28;20048;-75
2022/12/13 05:03:54;;;;;;;36.50;14.05;;;-2.40;99.90;;;;;;5033198;28;20029;-77
2022/12/13 05:06:20;;;;;;;35.03;13.60;;;-2.40;99.90;;;;;;5030845;28;20041;-77
2022/12/13 05:08:45;;;;;;;33.13;13.90;;;-2.50;99.90;;;;;;5031094;28;20025;-78
2022/12/13 05:11:11;;;;;;;33.13;13.38;;;-2.50;99.90;;;;;;5035929;28;20380;-76
2022/12/13 05:13:37;;;;;;;34.53;13.15;;;-2.50;99.90;;;;;;5048792;28;20120;-78
2022/12/13 05:16:05;;;;;;;35.92;14.73;;;-2.50;99.90;;;;;;5052491;28;20107;-77
2022/12/13 05:18:32;;;;;;;34.60;13.57;;;-2.40;99.90;;;;;;5041255;28;20786;-77
2022/12/13 05:21:03;;;;;;;31.38;12.75;;;-2.40;99.90;;;;;;5030100;28;20396;-76
2022/12/13 05:23:29;;;;;;;31.92;12.70;;;-2.40;99.90;;;;;;5051597;28;20025;-76
2022/12/13 05:25:54;;;;;;;29.25;11.93;;;-2.50;99.90;;;;;;5024936;28;20037;-76
2022/12/13 05:28:24;;;;;;;29.92;11.93;;;-2.50;99.90;;;;;;5045994;28;20091;-76
2022/12/13 05:30:49;;;;;;;27.25;11.95;;;-2.50;99.90;;;;;;5029845;28;20022;-76
2022/12/13 05:33:15;;;;;;;31.05;12.63;;;-2.50;99.90;;;;;;5036087;28;20040;-76
2022/12/13 05:35:41;;;;;;;27.60;11.32;;;-2.50;99.90;;;;;;5040609;28;20045;-75
2022/12/13 05:38:06;;;;;;;28.13;11.07;;;-2.50;99.90;;;;;;5045746;28;20017;-74
2022/12/13 05:40:32;;;;;;;30.20;11.30;;;-2.60;99.90;;;;;;5033009;28;20472;-75
2022/12/13 05:42:58;;;;;;;28.40;12.50;;;-2.60;99.90;;;;;;5038217;28;20079;-75
2022/12/13 05:45:24;;;;;;;29.25;10.88;;;-2.60;99.90;;;;;;5044499;28;20032;-75
2022/12/13 05:47:49;;;;;;;26.20;11.07;;;-2.60;99.90;;;;;;5037955;28;20040;-75
2022/12/13 05:50:16;;;;;;;32.08;13.00;;;-2.70;99.90;;;;;;5040444;28;20087;-75
2022/12/13 05:52:42;;;;;;;28.20;12.05;;;-2.70;99.90;;;;;;5048580;28;20033;-75
2022/12/13 05:55:09;;;;;;;28.38;11.75;;;-2.80;99.90;;;;;;5049385;28;20519;-76
2022/12/13 05:57:35;;;;;;;32.92;12.65;;;-2.70;99.90;;;;;;5031659;28;20415;-77
2022/12/13 06:00:01;;;;;;;33.38;14.18;;;-2.70;99.90;;;;;;5047050;28;20033;-76
2022/12/13 06:02:26;;;;;;;32.47;13.50;;;-2.60;99.90;;;;;;5049469;28;20029;-76
2022/12/13 06:04:52;;;;;;;28.55;11.77;;;-2.70;99.90;;;;;;5048323;28;20041;-76
2022/12/13 06:07:18;;;;;;;27.73;11.73;;;-2.70;99.90;;;;;;5049544;28;20053;-77
2022/12/13 06:09:43;;;;;;;29.77;11.38;;;-2.80;99.90;;;;;;5044161;28;20034;-77
2022/12/13 06:12:09;;;;;;;28.20;11.68;;;-2.80;99.90;;;;;;5029277;28;20037;-76
2022/12/13 06:14:35;;;;;;;28.83;12.02;;;-2.80;99.90;;;;;;5034051;28;20600;-76
2022/12/13 06:17:01;;;;;;;25.10;10.65;;;-2.90;99.90;;;;;;5065442;28;20029;-76
2022/12/13 06:19:26;;;;;;;22.50;10.32;;;-2.90;99.90;;;;;;5066194;28;20482;-76
2022/12/13 06:21:53;;;;;;;26.38;11.43;;;-2.90;99.90;;;;;;5057224;28;20029;-76
2022/12/13 06:24:23;;;;;;;27.75;11.40;;;-2.90;99.90;;;;;;5041784;28;20026;-75
2022/12/13 06:26:50;;;;;;;27.60;11.32;;;-2.80;99.90;;;;;;5032967;28;20056;-75
2022/12/13 06:29:18;;;;;;;25.83;11.63;;;-2.80;99.90;;;;;;5036490;28;20052;-75
2022/12/13 06:31:44;;;;;;;27.35;12.30;;;-2.90;99.90;;;;;;5039833;28;20052;-76
2022/12/13 06:34:09;;;;;;;29.73;12.00;;;-2.90;99.90;;;;;;5039502;28;20045;-76
2022/12/13 06:36:36;;;;;;;26.52;11.07;;;-3.00;99.90;;;;;;5053579;28;20045;-76
2022/12/13 06:39:04;;;;;;;28.20;11.82;;;-3.00;99.90;;;;;;5035245;28;20033;-75
2022/12/13 06:41:29;;;;;;;26.63;12.10;;;-3.00;99.90;;;;;;5039944;28;20137;-76
2022/12/13 06:43:55;;;;;;;27.85;11.55;;;-3.00;99.90;;;;;;5061460;28;20052;-77
2022/12/13 06:46:21;;;;;;;31.70;11.60;;;-3.00;99.90;;;;;;5036088;28;20082;-75
2022/12/13 06:48:46;;;;;;;27.77;11.45;;;-2.90;99.90;;;;;;5045188;28;20036;-76
2022/12/13 06:51:12;;;;;;;27.70;11.02;;;-2.90;99.90;;;;;;5065014;28;20534;-75
2022/12/13 06:53:38;;;;;;;25.75;11.13;;;-2.90;99.90;;;;;;5040744;28;20511;-75
2022/12/13 06:56:06;;;;;;;29.98;12.85;;;-2.90;99.90;;;;;;5035176;28;20067;-75
2022/12/13 06:58:33;;;;;;;30.48;12.35;;;-2.90;99.90;;;;;;5053482;28;20032;-75
2022/12/13 07:01:16;;;;;;;28.55;11.93;;;-2.90;99.90;;;;;;5050823;28;20876;-76
2022/12/13 07:03:42;;;;;;;27.88;11.18;;;-3.00;99.90;;;;;;5044394;28;20048;-75
2022/12/13 07:06:13;;;;;;;24.63;11.25;;;-3.00;99.90;;;;;;5045256;28;20029;-75
2022/12/13 07:08:39;;;;;;;30.80;12.45;;;-3.00;99.90;;;;;;5034936;28;20091;-75
2022/12/13 07:11:05;;;;;;;27.02;11.98;;;-3.00;99.90;;;;;;5037310;28;20025;-76
2022/12/13 07:13:32;;;;;;;30.08;13.35;;;-2.90;99.90;;;;;;5040508;28;20033;-75
2022/12/13 07:15:59;;;;;;;28.73;12.77;;;-2.90;99.90;;;;;;5051924;28;20039;-75
2022/12/13 07:18:25;;;;;;;30.63;11.68;;;-2.80;99.90;;;;;;5042379;28;20082;-75
2022/12/13 07:20:50;;;;;;;28.17;12.30;;;-2.70;99.90;;;;;;5033679;28;20501;-75
2022/12/13 07:23:16;;;;;;;29.77;12.98;;;-2.70;99.90;;;;;;5032173;28;20029;-74
2022/12/13 07:25:41;;;;;;;32.65;12.68;;;-2.70;99.90;;;;;;5033048;28;20037;-75
2022/12/13 07:28:08;;;;;;;32.15;12.48;;;-2.70;99.90;;;;;;5037734;28;20703;-76
2022/12/13 07:30:38;;;;;;;24.83;11.88;;;-2.60;99.90;;;;;;5045556;28;20068;-74
2022/12/13 07:33:04;;;;;;;;;;;-2.60;99.90;;;;;;5042571;28;20035;-75
2022/12/13 07:35:31;;;;;;;25.77;11.68;;;-2.60;99.90;;;;;;5037799;28;20003;-75
2022/12/13 07:37:57;;;;;;;25.50;11.43;;;-2.60;99.90;;;;;;5043376;28;20071;-75
2022/12/13 07:40:24;;;;;;;32.13;13.40;;;-2.60;99.90;;;;;;5037549;28;20032;-76
2022/12/13 07:42:54;;;;;;;31.20;14.40;;;-2.60;99.90;;;;;;5030874;28;20030;-75
2022/12/13 07:45:21;;;;;;;32.65;14.95;;;-2.60;99.90;;;;;;5048443;28;20484;-76
2022/12/13 07:47:47;;;;;;;36.60;16.00;;;-2.60;99.90;;;;;;5035463;28;20143;-77
2022/12/13 07:50:13;;;;;;;37.60;15.85;;;-2.50;99.90;;;;;;5037931;28;20029;-76
2022/12/13 07:52:38;;;;;;;31.25;16.33;;;-2.60;99.90;;;;;;5035050;28;20462;-77
2022/12/13 07:55:05;;;;;;;31.30;16.15;;;-2.60;99.90;;;;;;5036060;28;20037;-76
2022/12/13 07:57:31;;;;;;;29.15;15.32;;;-2.60;99.90;;;;;;5028948;28;20123;-76
2022/12/13 07:59:57;;;;;;;31.17;14.40;;;-2.60;99.90;;;;;;5032212;28;20037;-77
2022/12/13 08:02:23;;;;;;;30.50;14.32;;;-2.60;99.90;;;;;;5039888;28;20037;-76
2022/12/13 08:04:49;;;;;;;32.92;15.63;;;-2.50;99.90;;;;;;5037602;28;20033;-76
2022/12/13 08:07:15;;;;;;;31.23;14.77;;;-2.50;99.90;;;;;;5033889;28;20056;-76
2022/12/13 08:09:40;;;;;;;29.38;13.55;;;-2.60;99.90;;;;;;5036952;28;20118;-78
2022/12/13 08:12:06;;;;;;;27.55;13.57;;;-2.60;99.90;;;;;;5038026;28;20033;-78
2022/12/13 08:14:32;;;;;;;25.98;13.50;;;-2.60;99.90;;;;;;5034236;28;20025;-76
2022/12/13 08:16:58;;;;;;;30.20;14.27;;;-2.60;99.90;;;;;;5035790;28;20040;-76
2022/12/13 08:19:23;;;;;;;33.28;14.63;;;-2.60;99.90;;;;;;5030988;28;20025;-77
2022/12/13 08:21:51;;;;;;;26.67;12.70;;;-2.60;99.90;;;;;;5032616;28;20476;-77
2022/12/13 08:24:20;;;;;;;31.05;13.55;;;-2.50;99.90;;;;;;5038628;28;20070;-76
2022/12/13 08:26:46;;;;;;;32.10;14.13;;;-2.40;99.90;;;;;;5050569;28;20458;-76
2022/12/13 08:29:12;;;;;;;28.75;13.68;;;-2.40;99.90;;;;;;5045477;28;20044;-78
2022/12/13 08:31:38;;;;;;;24.75;12.70;;;-2.40;99.90;;;;;;5041316;28;20785;-76
2022/12/13 08:34:04;;;;;;;30.30;14.40;;;-2.30;99.90;;;;;;5028871;28;20021;-76
2022/12/13 08:36:29;;;;;;;32.13;14.02;;;-2.20;99.90;;;;;;5047148;28;20403;-76
2022/12/13 08:38:57;;;;;;;28.42;14.68;;;-2.10;99.90;;;;;;5046801;28;20025;-76
2022/12/13 08:41:23;;;;;;;33.95;15.30;;;-2.10;99.90;;;;;;5046517;28;20025;-76
2022/12/13 08:43:49;;;;;;;30.55;14.73;;;-2.00;99.90;;;;;;5033193;28;20036;-76
2022/12/13 08:46:15;;;;;;;31.20;13.43;;;-2.00;99.90;;;;;;5026815;28;20052;-77
2022/12/13 08:48:40;;;;;;;29.05;13.80;;;-1.90;99.90;;;;;;5027275;28;20034;-76
2022/12/13 08:51:10;;;;;;;31.50;14.18;;;-1.90;99.90;;;;;;5034696;28;20487;-76
2022/12/13 08:53:36;;;;;;;31.15;13.25;;;-1.90;99.90;;;;;;5045184;28;20120;-77
2022/12/13 08:56:03;;;;;;;28.80;13.25;;;-1.90;99.90;;;;;;5035340;28;20120;-76
2022/12/13 08:58:30;;;;;;;31.95;13.93;;;-1.90;99.90;;;;;;5037746;28;20057;-75
2022/12/13 09:00:56;;;;;;;30.20;13.85;;;-1.80;99.90;;;;;;5028441;28;20570;-77
2022/12/13 09:03:22;;;;;;;31.95;14.50;;;-1.70;99.90;;;;;;5046730;28;20036;-77
2022/12/13 09:05:48;;;;;;;32.08;15.15;;;-1.70;99.90;;;;;;5031649;28;20061;-76
2022/12/13 09:08:14;;;;;;;34.72;14.93;;;-1.50;99.90;;;;;;5044145;28;20064;-76
2022/12/13 09:10:39;;;;;;;34.30;15.18;;;-1.40;99.90;;;;;;5057843;28;20054;-75
2022/12/13 09:13:05;;;;;;;32.58;14.85;;;-1.30;99.90;;;;;;5059302;28;20057;-77
2022/12/13 09:15:32;;;;;;;31.58;15.25;;;-1.10;99.90;;;;;;5042591;28;20032;-78
2022/12/13 09:17:57;;;;;;;32.55;16.48;;;-1.00;99.90;;;;;;5030319;28;20761;-76
2022/12/13 09:20:23;;;;;;;31.52;15.00;;;-0.80;99.90;;;;;;5045405;28;20124;-77
2022/12/13 09:22:50;;;;;;;36.65;16.40;;;-0.60;99.90;;;;;;5030485;28;20025;-76
2022/12/13 09:25:16;;;;;;;34.15;17.88;;;-0.40;99.90;;;;;;5029596;28;20033;-75
2022/12/13 09:27:41;;;;;;;43.10;18.83;;;-0.20;99.90;;;;;;5036776;28;20052;-76
2022/12/13 09:30:12;;;;;;;44.85;18.27;;;0.00;99.90;;;;;;5038561;28;20025;-76
2022/12/13 09:32:39;;;;;;;53.85;21.63;;;0.10;99.90;;;;;;5044495;28;20123;-72
2022/12/13 09:35:06;;;;;;;57.25;24.05;;;0.20;99.90;;;;;;5041565;28;20039;-76
2022/12/13 09:37:32;;;;;;;50.88;21.85;;;0.20;99.90;;;;;;5050042;28;20434;-77
2022/12/13 09:39:57;;;;;;;46.80;20.67;;;0.30;99.90;;;;;;5045666;28;20043;-76
2022/12/13 09:42:27;;;;;;;55.80;22.75;;;0.30;99.90;;;;;;5037781;28;20506;-76
2022/12/13 09:45:02;;;;;;;50.55;21.55;;;0.30;99.90;;;;;;5040038;28;20167;-74
2022/12/13 09:47:38;;;;;;;45.60;20.48;;;0.30;99.90;;;;;;5035950;28;20041;-72
2022/12/13 09:50:12;;;;;;;45.47;19.77;;;0.30;99.90;;;;;;5043276;28;20029;-78
2022/12/13 09:52:41;;;;;;;36.35;16.60;;;0.40;99.90;;;;;;5038003;28;20052;-78
2022/12/13 09:55:23;;;;;;;50.67;22.17;;;0.40;99.90;;;;;;5028133;28;20037;-76
2022/12/13 09:57:50;;;;;;;45.75;19.33;;;0.50;99.90;;;;;;5029627;28;20029;-77
2022/12/13 10:00:21;;;;;;;45.05;20.25;;;0.60;99.90;;;;;;5029381;28;20685;-77
2022/12/13 10:02:52;;;;;;;46.88;20.88;;;0.60;99.90;;;;;;5035463;28;20040;-75
2022/12/13 10:05:24;;;;;;;46.30;21.10;;;0.70;99.90;;;;;;5041106;28;20037;-73
2022/12/13 10:07:52;;;;;;;44.03;19.63;;;0.80;99.90;;;;;;5043810;28;20037;-76
2022/12/13 10:10:20;;;;;;;41.10;18.60;;;0.90;99.90;;;;;;5045249;28;20033;-75
2022/12/13 10:12:52;;;;;;;39.63;18.45;;;0.90;99.90;;;;;;5035402;28;20072;-76
2022/12/13 10:15:19;;;;;;;31.08;15.02;;;1.00;99.90;;;;;;5045452;28;20033;-78
2022/12/13 10:17:47;;;;;;;33.33;16.70;;;1.20;99.90;;;;;;5039944;28;20450;-76
2022/12/13 10:20:18;;;;;;;32.38;16.02;;;1.30;99.90;;;;;;5040932;28;20078;-74
2022/12/13 10:22:44;;;;;;;27.95;14.65;;;1.40;99.90;;;;;;5031505;28;20036;-73
2022/12/13 10:25:10;;;;;;;25.40;13.18;;;1.50;99.90;;;;;;5038876;28;20025;-77
2022/12/13 10:27:39;;;;;;;27.63;14.27;;;1.60;99.90;;;;;;5042889;28;20037;-78
2022/12/13 10:30:23;;;;;;;26.88;14.20;;;1.60;99.90;;;;;;5037470;28;20111;-77
2022/12/13 10:32:56;;;;;;;25.95;13.70;;;1.70;99.90;;;;;;5032735;28;20562;-77
2022/12/13 10:35:25;;;;;;;26.35;14.48;;;1.70;99.90;;;;;;5037702;28;20044;-76
2022/12/13 10:37:52;;;;;;;26.38;12.90;;;1.80;99.90;;;;;;5041377;28;20123;-75
2022/12/13 10:40:32;;;;;;;21.88;12.10;;;1.70;99.90;;;;;;5031682;28;20653;-75
2022/12/13 10:43:19;;;;;;;25.13;12.85;;;1.70;99.90;;;;;;5027406;28;20033;-75
2022/12/13 10:45:57;;;;;;;19.85;10.60;;;1.70;99.90;;;;;;5027750;28;20045;-75
2022/12/13 10:48:40;;;;;;;21.98;12.18;;;1.70;99.90;;;;;;5036985;28;20037;-75
2022/12/13 10:51:10;;;;;;;21.15;11.65;;;1.80;99.90;;;;;;5032601;28;22041;-75
2022/12/13 10:53:49;;;;;;;23.77;12.33;;;1.80;99.90;;;;;;5039120;28;20105;-75
2022/12/13 10:56:19;;;;;;;21.50;11.40;;;1.90;99.90;;;;;;5035806;28;20037;-75
2022/12/13 10:58:45;;;;;;;;;;;1.90;99.90;;;;;;5047944;28;20122;-76
2022/12/13 11:01:17;;;;;;;19.65;10.48;;;1.90;99.90;;;;;;5032047;28;19913;-77
2022/12/13 11:03:58;;;;;;;20.08;10.35;;;2.00;99.90;;;;;;5029795;28;20026;-77
2022/12/13 11:06:26;;;;;;;19.65;10.38;;;2.00;99.90;;;;;;5034103;28;20562;-76
2022/12/13 11:08:52;;;;;;;20.02;10.48;;;2.00;99.90;;;;;;5047641;28;20113;-76
2022/12/13 11:11:27;;;;;;;19.50;10.20;;;2.10;99.90;;;;;;5031065;28;20037;-75
2022/12/13 11:14:00;;;;;;;18.33;9.55;;;2.10;99.90;;;;;;5036408;28;20030;-76
2022/12/13 11:16:34;;;;;;;17.42;9.80;;;2.10;99.90;;;;;;5039178;28;20033;-76
2022/12/13 11:19:05;;;;;;;17.90;10.35;;;2.20;99.90;;;;;;5026804;28;20557;-77
2022/12/13 11:21:35;;;;;;;19.88;10.48;;;2.20;99.90;;;;;;5026595;28;20675;-75
2022/12/13 11:24:04;;;;;;;18.63;10.23;;;2.20;99.90;;;;;;5036829;28;20056;-75
2022/12/13 11:26:34;;;;;;;19.25;11.20;;;2.30;99.90;;;;;;5046653;28;20033;-73
2022/12/13 11:29:18;;;;;;;19.85;10.23;;;2.30;99.90;;;;;;5028946;28;20064;-76
2022/12/13 11:32:04;;;;;;;15.75;8.95;;;2.30;99.90;;;;;;5026795;28;20029;-74
2022/12/13 11:34:42;;;;;;;19.95;10.50;;;2.30;99.90;;;;;;5026360;28;20025;-76
2022/12/13 11:37:26;;;;;;;20.23;9.85;;;2.30;99.90;;;;;;5027645;28;20488;-76
2022/12/13 11:40:14;;;;;;;18.83;9.75;;;2.30;99.90;;;;;;5058930;28;20525;-75
2022/12/13 11:42:53;;;;;;;17.33;9.65;;;2.30;99.90;;;;;;5030063;28;20406;-73
2022/12/13 11:45:45;;;;;;;18.60;9.90;;;2.40;99.90;;;;;;5044707;28;20050;-77
2022/12/13 11:48:43;;;;;;;17.73;10.52;;;2.50;99.90;;;;;;5043767;28;20033;-76
2022/12/13 11:51:11;;;;;;;17.60;10.43;;;2.60;99.90;;;;;;5025760;28;20120;-76
2022/12/13 11:54:18;;;;;;;18.33;9.05;;;2.70;99.90;;;;;;5027282;28;20029;-76
2022/12/13 11:56:46;;;;;;;19.08;9.63;;;2.80;99.90;;;;;;5024497;28;20034;-75
2022/12/13 11:59:23;;;;;;;17.73;9.68;;;2.90;99.90;;;;;;5024409;28;20021;-76
2022/12/13 12:01:52;;;;;;;18.33;9.82;;;3.00;99.90;;;;;;5026812;28;20041;-76
2022/12/13 12:04:41;;;;;;;17.90;8.85;;;3.10;99.90;;;;;;5025834;28;20026;-76
2022/12/13 12:07:12;;;;;;;17.70;9.38;;;3.20;99.90;;;;;;5041452;28;20048;-78
2022/12/13 12:09:46;;;;;;;17.48;9.68;;;3.20;99.90;;;;;;5039900;28;20025;-74
2022/12/13 12:12:30;;;;;;;17.33;9.63;;;3.30;99.90;;;;;;5032394;28;20036;-77
2022/12/13 12:15:01;;;;;;;17.35;9.30;;;3.30;99.90;;;;;;5042254;28;20060;-75
2022/12/13 12:17:27;;;;;;;28.60;10.63;;;3.30;99.90;;;;;;5038906;28;20044;-75
2022/12/13 12:19:56;;;;;;;17.05;9.45;;;3.30;99.90;;;;;;5037640;28;20120;-75
2022/12/13 12:23:08;;;;;;;19.33;10.18;;;3.20;99.90;;;;;;5043497;28;20060;-75
2022/12/13 12:25:42;;;;;;;19.38;9.73;;;3.10;99.90;;;;;;5032683;28;20601;-74
2022/12/13 12:28:26;;;;;;;20.45;9.48;;;3.00;99.90;;;;;;5042384;28;20025;-75
2022/12/13 12:30:57;;;;;;;19.25;10.35;;;3.00;99.90;;;;;;5035077;28;20037;-75
2022/12/13 12:33:50;;;;;;;17.58;9.70;;;3.00;99.90;;;;;;5047761;28;20041;-76
2022/12/13 12:36:27;;;;;;;20.33;10.38;;;3.00;99.90;;;;;;5036799;28;20100;-76
2022/12/13 12:39:07;;;;;;;21.20;10.02;;;3.00;99.90;;;;;;5044568;28;20037;-76
2022/12/13 12:41:51;;;;;;;;;;;3.00;99.90;;;;;;5038953;28;20506;-75
2022/12/13 12:44:30;;;;;;;17.65;9.98;;;3.10;99.90;;;;;;5049152;28;20260;-75
2022/12/13 12:47:30;;;;;;;19.65;10.13;;;3.10;99.90;;;;;;5024584;28;20051;-75
2022/12/13 12:50:15;;;;;;;20.90;11.05;;;3.00;99.90;;;;;;5031677;28;20120;-75